Hanska, Minnesota
Current Conditions -  °F | °C
As of 10:34 AM on Sunday 21 Dec 2014 (Local Time) from KULM Reporting Station
Unknown Precip Unknown Precip  
Wind Chill: 27°   Ceiling: 200
Heat Index: 34°   Visibility: 0.75mi
Dew Point: 34°   Wind: 8mph
Humidity: 100%   Direction: 170°S
Pressure: 29.81"   Gusts: NA
Location:  44.15°N, 94.49°W
Report Text: KULM 211634Z AUTO 17007KT 3/4SM UP OVC002 01/01 A2981 RMK AO2
Loading
Personal Weather Stations






























Interactive Weather Map New forecast layout! Learn more

10-Day Weather Forecast

Advertisements
Track Severe Weather on mobile